Time;durP1;ratioP1;P1;durP2;ratioP2;P2;SDS_P1;SDS_P2;PMS_P1;PMS_P2;Temp;Humidity;BMP_temperature;BMP_pressure;BME280_temperature;BME280_humidity;BME280_pressure;Samples;Min_cycle;Max_cycle;Signal;HPM_P1;HPM_P2
2022/12/30 00:01:19;;;;;;;0.00;0.00;;;;;;;4.32;100.00;99266.97;6214049;23;20008;-78
2022/12/30 00:03:45;;;;;;;0.00;0.00;;;;;;;4.21;100.00;99265.22;6214453;23;20015;-79
2022/12/30 00:06:16;;;;;;;0.10;0.10;;;;;;;4.21;100.00;99267.91;6213915;23;20013;-82
2022/12/30 00:09:06;;;;;;;;;;;;;;;;;;;;;
2022/12/30 00:11:39;;;;;;;0.00;0.00;;;;;;;4.32;100.00;99266.97;6214822;23;20068;-79
2022/12/30 00:34:00;;;;;;;0.00;0.00;;;;;;;4.83;100.00;99255.03;6219197;23;20714;-77
2022/12/30 00:36:27;;;;;;;0.00;0.00;;;;;;;4.87;100.00;99245.31;6212205;23;20004;-78
2022/12/30 00:38:53;;;;;;;0.00;0.00;;;;;;;4.95;100.00;99244.84;6189151;23;20004;-78
2022/12/30 00:44:05;;;;;;;0.10;0.10;;;;;;;5.05;100.00;99231.41;6214084;23;20015;-78
2022/12/30 00:46:32;;;;;;;0.10;0.10;;;;;;;5.12;100.00;99231.16;6164313;23;20242;-76
2022/12/30 00:57:46;;;;;;;0.00;0.00;;;;;;;5.34;100.00;99203.94;6211493;23;20078;-79
2022/12/30 01:00:15;;;;;;;0.00;0.00;;;;;;;5.50;100.00;99199.41;6188501;23;20017;-79
2022/12/30 01:02:46;;;;;;;0.00;0.00;;;;;;;5.76;100.00;99211.22;6214295;23;20032;-77
2022/12/30 01:05:11;;;;;;;0.00;0.00;;;;;;;5.91;100.00;99215.09;6185874;23;20005;-77
2022/12/30 01:07:40;;;;;;;0.10;0.10;;;;;;;5.91;100.00;99210.50;6213595;23;20057;-77
2022/12/30 01:10:05;;;;;;;0.00;0.00;;;;;;;6.01;100.00;99220.59;6183971;23;20088;-77
2022/12/30 01:12:31;;;;;;;0.00;0.00;;;;;;;6.07;100.00;99208.66;6213949;23;20008;-76
2022/12/30 01:14:59;;;;;;;0.00;0.00;;;;;;;6.33;100.00;99219.63;6185898;23;20004;-77
2022/12/30 01:17:28;;;;;;;0.10;0.10;;;;;;;6.41;100.00;99202.81;6189211;23;20012;-77
2022/12/30 01:19:54;;;;;;;0.00;0.00;;;;;;;6.37;100.00;99188.13;6209571;23;20043;-76
2022/12/30 01:22:20;;;;;;;0.00;0.00;;;;;;;6.39;100.00;99199.53;6161703;23;20092;-77
2022/12/30 01:24:45;;;;;;;0.00;0.00;;;;;;;6.36;100.00;99199.28;6211677;23;20050;-75
2022/12/30 01:27:12;;;;;;;0.00;0.00;;;;;;;6.28;100.00;99179.69;6208112;23;20423;-76
2022/12/30 01:29:40;;;;;;;0.00;0.00;;;;;;;6.38;100.00;99180.78;6187035;23;20009;-77
2022/12/30 01:32:11;;;;;;;0.00;0.00;;;;;;;6.45;100.00;99187.63;6207839;23;20010;-78
2022/12/30 01:34:37;;;;;;;0.00;0.00;;;;;;;6.65;100.00;99186.00;6215312;23;19997;-77
2022/12/30 01:37:03;;;;;;;0.00;0.00;;;;;;;6.71;100.00;99190.34;6209271;23;20110;-77
2022/12/30 01:39:29;;;;;;;0.00;0.00;;;;;;;6.76;100.00;99186.81;6211472;23;20027;-77
2022/12/30 01:41:55;;;;;;;0.03;0.03;;;;;;;6.78;100.00;99182.75;6208698;23;20223;-76
2022/12/30 01:44:48;;;;;;;0.00;0.00;;;;;;;6.78;100.00;99177.31;6209084;23;20107;-77
2022/12/30 01:47:26;;;;;;;0.00;0.00;;;;;;;6.74;100.00;99173.50;6212216;23;20411;-76
2022/12/30 01:49:55;;;;;;;0.00;0.00;;;;;;;6.62;100.00;99159.38;6210204;23;20032;-77
2022/12/30 01:52:24;;;;;;;0.00;0.00;;;;;;;6.67;100.00;99151.22;6211356;23;20009;-76
2022/12/30 01:54:51;;;;;;;0.00;0.00;;;;;;;6.63;100.00;99139.28;6208846;23;20004;-76
2022/12/30 01:57:19;;;;;;;0.00;0.00;;;;;;;6.65;100.00;99142.53;6209994;23;20035;-77
2022/12/30 01:59:47;;;;;;;0.00;0.00;;;;;;;6.64;100.00;99127.31;6209693;23;20766;-80
2022/12/30 02:02:12;;;;;;;0.00;0.00;;;;;;;6.60;100.00;99118.06;6210215;23;20012;-78
2022/12/30 02:04:38;;;;;;;0.00;0.00;;;;;;;6.56;100.00;99127.88;6186737;23;20324;-78
2022/12/30 02:07:14;;;;;;;0.00;0.00;;;;;;;6.63;100.00;99123.81;6160863;23;20483;-77
2022/12/30 02:09:41;;;;;;;0.00;0.00;;;;;;;6.59;100.00;99127.34;6206959;23;20603;-78
2022/12/30 02:12:08;;;;;;;0.00;0.00;;;;;;;6.58;100.00;99114.84;6209927;23;20004;-77
2022/12/30 02:14:37;;;;;;;0.10;0.10;;;;;;;6.58;100.00;99109.41;6211355;23;20331;-77
2022/12/30 02:17:13;;;;;;;0.03;0.03;;;;;;;6.70;100.00;99107.25;6210562;23;20008;-77
2022/12/30 02:19:44;;;;;;;0.00;0.00;;;;;;;6.72;100.00;99099.63;6211007;23;20440;-77
2022/12/30 02:22:29;;;;;;;0.00;0.00;;;;;;;6.72;100.00;99098.81;6210634;23;20040;-77
2022/12/30 02:25:00;;;;;;;0.00;0.00;;;;;;;6.74;100.00;99119.16;6210641;23;20420;-76
2022/12/30 02:27:57;;;;;;;0.00;0.00;;;;;;;6.74;100.00;99086.56;6212509;23;20051;-76
2022/12/30 02:30:47;;;;;;;0.00;0.00;;;;;;;6.79;100.00;99083.84;6211773;23;20320;-77
2022/12/30 02:33:33;;;;;;;0.00;0.00;;;;;;;6.81;100.00;99078.94;6210424;23;20079;-76
2022/12/30 02:36:26;;;;;;;0.00;0.00;;;;;;;6.77;100.00;99068.91;6209926;23;20008;-76
2022/12/30 02:38:57;;;;;;;0.00;0.00;;;;;;;6.87;100.00;99084.38;6205542;23;20009;-76
2022/12/30 02:44:42;;;;;;;0.08;0.08;;;;;;;6.92;100.00;99059.91;6206333;23;20016;-76
2022/12/30 02:47:14;;;;;;;0.00;0.00;;;;;;;7.00;100.00;99072.94;6213322;23;19997;-75
2022/12/30 02:49:43;;;;;;;0.10;0.10;;;;;;;7.01;100.00;99052.84;6206822;23;20005;-76
2022/12/30 02:52:15;;;;;;;0.10;0.10;;;;;;;7.00;100.00;99048.47;6210616;23;20015;-76
2022/12/30 02:54:47;;;;;;;0.00;0.00;;;;;;;6.96;100.00;99040.06;6184565;23;20103;-77
2022/12/30 02:57:30;;;;;;;0.00;0.00;;;;;;;6.95;100.00;99048.47;6211015;23;20004;-76
2022/12/30 03:06:06;;;;;;;0.00;0.00;;;;;;;7.20;100.00;99038.63;6210443;23;20023;-75
2022/12/30 03:08:43;;;;;;;0.05;0.05;;;;;;;7.20;100.00;99033.19;6206668;23;20506;-75
2022/12/30 03:11:17;;;;;;;0.00;0.00;;;;;;;7.15;100.00;99015.00;6208501;23;20005;-75
2022/12/30 03:13:48;;;;;;;0.00;0.00;;;;;;;7.13;100.00;99017.19;6207843;23;20087;-75
2022/12/30 03:16:21;;;;;;;0.00;0.00;;;;;;;7.18;100.00;99002.75;6211088;23;20004;-75
2022/12/30 03:18:48;;;;;;;0.00;0.00;;;;;;;7.21;100.00;98989.41;6207590;23;20438;-74
2022/12/30 03:21:16;;;;;;;0.10;0.10;;;;;;;7.21;100.00;98989.41;6205630;23;20032;-75
2022/12/30 03:29:23;;;;;;;0.00;0.00;;;;;;;7.56;100.00;98965.81;6209266;23;20677;-74
2022/12/30 03:31:49;;;;;;;0.10;0.10;;;;;;;7.58;100.00;98954.66;6208652;23;20007;-75
2022/12/30 03:34:15;;;;;;;0.00;0.00;;;;;;;7.70;100.00;98944.25;6160577;23;20005;-75
2022/12/30 03:36:45;;;;;;;0.10;0.10;;;;;;;7.72;100.00;98933.09;6182684;23;20334;-74
2022/12/30 03:39:23;;;;;;;0.00;0.00;;;;;;;7.73;100.00;98938.25;6206319;23;20013;-75
2022/12/30 03:41:52;;;;;;;0.00;0.00;;;;;;;7.76;100.00;98939.59;6209815;23;20000;-75
2022/12/30 03:44:20;;;;;;;0.00;0.00;;;;;;;7.80;100.00;98922.41;6207465;23;20004;-76
2022/12/30 03:46:47;;;;;;;0.00;0.00;;;;;;;7.82;100.00;98922.94;6209610;23;20007;-75
2022/12/30 03:49:13;;;;;;;0.00;0.00;;;;;;;7.82;100.00;98905.78;6208170;23;20075;-75
2022/12/30 03:51:39;;;;;;;0.00;0.00;;;;;;;7.89;100.00;98906.28;6207457;23;20498;-74
2022/12/30 03:54:04;;;;;;;0.00;0.00;;;;;;;7.86;100.00;98888.59;6208156;23;20012;-75
2022/12/30 03:56:30;;;;;;;0.00;0.00;;;;;;;7.88;100.00;98882.88;6203344;23;20008;-75
2022/12/30 03:58:55;;;;;;;0.00;0.00;;;;;;;7.88;100.00;98879.34;6208236;23;20427;-76
2022/12/30 04:01:20;;;;;;;0.00;0.00;;;;;;;7.92;100.00;98870.31;6155580;23;20009;-75
2022/12/30 04:03:46;;;;;;;0.00;0.00;;;;;;;7.93;100.00;98860.25;6181802;23;20016;-76
2022/12/30 04:06:12;;;;;;;0.00;0.00;;;;;;;7.98;100.00;98868.38;6182916;23;20514;-76
2022/12/30 04:08:38;;;;;;;0.10;0.10;;;;;;;8.01;100.00;98862.34;6184545;23;20012;-76
2022/12/30 04:11:03;;;;;;;0.08;0.08;;;;;;;8.03;100.00;98843.81;6185061;23;20054;-76
2022/12/30 04:13:29;;;;;;;0.00;0.00;;;;;;;7.99;100.00;98837.34;6205398;23;20075;-76
2022/12/30 04:15:56;;;;;;;0.00;0.00;;;;;;;8.07;100.00;98849.50;6183967;23;20420;-76
2022/12/30 04:18:21;;;;;;;0.10;0.10;;;;;;;8.01;100.00;98818.78;6181038;23;20601;-77
2022/12/30 04:20:47;;;;;;;0.10;0.10;;;;;;;8.03;100.00;98811.13;6209243;23;20435;-77
2022/12/30 04:23:12;;;;;;;0.00;0.00;;;;;;;8.04;100.00;98801.88;6180594;23;20031;-76
2022/12/30 04:25:38;;;;;;;0.00;0.00;;;;;;;8.03;100.00;98794.81;6184962;23;20059;-77
2022/12/30 04:28:03;;;;;;;0.00;0.00;;;;;;;8.01;100.00;98775.25;6161446;23;20072;-76
2022/12/30 04:30:29;;;;;;;0.00;0.00;;;;;;;7.99;100.00;98772.00;6209049;23;20004;-75
2022/12/30 04:32:55;;;;;;;0.00;0.00;;;;;;;7.96;100.00;98764.41;6210333;23;19997;-76
2022/12/30 04:35:20;;;;;;;0.00;0.00;;;;;;;7.97;100.00;98746.97;6184708;23;20012;-75
2022/12/30 04:37:49;;;;;;;0.00;0.00;;;;;;;7.98;100.00;98724.91;6159399;23;20016;-76
2022/12/30 04:40:15;;;;;;;0.10;0.10;;;;;;;7.99;100.00;98714.84;6207198;23;20082;-77
2022/12/30 04:42:41;;;;;;;0.00;0.00;;;;;;;7.99;100.00;98729.25;6208691;23;20092;-77
2022/12/30 04:45:07;;;;;;;0.00;0.00;;;;;;;8.00;100.00;98702.84;6159404;23;20035;-76
2022/12/30 04:47:32;;;;;;;0.00;0.00;;;;;;;7.95;100.00;98708.34;6181231;23;20367;-76
2022/12/30 04:49:58;;;;;;;0.00;0.00;;;;;;;7.96;100.00;98691.72;6210379;23;20016;-77
2022/12/30 04:52:23;;;;;;;0.00;0.00;;;;;;;8.01;100.00;98679.97;6184186;23;20011;-76
2022/12/30 04:54:49;;;;;;;0.00;0.00;;;;;;;8.07;100.00;98673.34;6209234;23;19996;-76
2022/12/30 04:57:14;;;;;;;0.00;0.00;;;;;;;8.05;100.00;98675.56;6211825;23;20394;-77
2022/12/30 04:59:40;;;;;;;0.00;0.00;;;;;;;8.09;100.00;98662.16;6182642;23;20466;-77
2022/12/30 05:02:05;;;;;;;0.10;0.10;;;;;;;8.07;100.00;98653.50;6186210;23;20423;-77
2022/12/30 05:04:30;;;;;;;0.00;0.00;;;;;;;8.05;100.00;98664.66;6161199;23;20012;-77
2022/12/30 05:06:56;;;;;;;0.10;0.10;;;;;;;8.08;100.00;98666.00;6185484;23;20008;-76
2022/12/30 05:09:21;;;;;;;0.00;0.00;;;;;;;8.05;100.00;98637.44;6208921;23;20012;-76
2022/12/30 05:11:47;;;;;;;0.00;0.00;;;;;;;8.06;100.00;98622.75;6210363;23;20008;-76
2022/12/30 05:14:12;;;;;;;0.10;0.10;;;;;;;8.11;100.00;98617.22;6156424;23;20423;-76
2022/12/30 05:16:38;;;;;;;0.00;0.00;;;;;;;8.16;100.00;98625.31;6184282;23;20016;-76
2022/12/30 05:19:03;;;;;;;0.00;0.00;;;;;;;8.18;100.00;98606.75;6213237;23;20020;-77
2022/12/30 05:21:29;;;;;;;0.00;0.00;;;;;;;8.13;100.00;98609.56;6182630;23;20069;-77
2022/12/30 05:26:38;;;;;;;0.00;0.00;;;;;;;8.19;100.00;98592.06;6207924;23;20060;-76
2022/12/30 05:29:03;;;;;;;0.00;0.00;;;;;;;8.20;100.00;98601.03;6211546;23;20016;-76
2022/12/30 05:31:29;;;;;;;0.00;0.00;;;;;;;8.21;100.00;98594.47;6183005;23;20986;-76
2022/12/30 05:33:54;;;;;;;0.00;0.00;;;;;;;8.17;100.00;98577.91;6211756;23;20051;-76
2022/12/30 05:36:20;;;;;;;0.10;0.10;;;;;;;8.17;100.00;98588.81;6210606;23;20014;-76
2022/12/30 05:38:46;;;;;;;0.00;0.00;;;;;;;8.18;100.00;98557.75;6211263;23;20036;-75
2022/12/30 05:41:12;;;;;;;0.00;0.00;;;;;;;8.20;100.00;98539.19;6187575;23;20009;-77
2022/12/30 05:43:37;;;;;;;0.00;0.00;;;;;;;8.24;100.00;98544.06;6208149;23;20558;-76
2022/12/30 05:46:04;;;;;;;0.00;0.00;;;;;;;8.19;100.00;98532.16;6161896;23;20493;-75
2022/12/30 05:48:30;;;;;;;0.10;0.10;;;;;;;8.08;100.00;98517.06;6210058;23;20019;-75
2022/12/30 05:50:55;;;;;;;0.00;0.00;;;;;;;7.93;100.00;98514.56;6185617;23;20008;-76
2022/12/30 05:53:20;;;;;;;0.00;0.00;;;;;;;7.76;100.00;98513.19;6160302;23;20016;-77
2022/12/30 05:55:46;;;;;;;0.00;0.00;;;;;;;7.62;100.00;98485.09;6185873;23;20585;-76
2022/12/30 05:58:11;;;;;;;0.00;0.00;;;;;;;7.51;100.00;98471.63;6161186;23;20015;-75
2022/12/30 06:01:17;;;;;;;0.00;0.00;;;;;;;7.41;100.00;98488.09;6209025;23;20312;-80
2022/12/30 06:03:46;;;;;;;0.00;0.00;;;;;;;7.34;100.00;98463.19;6202387;23;20493;-83
2022/12/30 06:06:11;;;;;;;0.00;0.00;;;;;;;7.28;100.00;98426.28;6213721;23;20139;-82
2022/12/30 06:08:37;;;;;;;0.00;0.00;;;;;;;7.35;100.00;98437.59;6187793;23;20005;-82
2022/12/30 06:11:03;;;;;;;0.00;0.00;;;;;;;7.40;100.00;98461.19;6214595;23;20011;-81
2022/12/30 06:13:29;;;;;;;0.10;0.10;;;;;;;7.40;100.00;98434.81;6210844;23;20000;-81
2022/12/30 06:15:54;;;;;;;0.00;0.00;;;;;;;7.39;100.00;98437.81;6186158;23;20054;-82
2022/12/30 06:18:20;;;;;;;0.00;0.00;;;;;;;7.37;100.00;98429.94;6216866;23;20064;-82
2022/12/30 06:21:00;;;;;;;0.00;0.00;;;;;;;7.25;100.00;98394.25;6188612;23;20024;-82
2022/12/30 06:23:33;;;;;;;0.00;0.00;;;;;;;7.27;100.00;98392.03;6191164;23;20020;-81
2022/12/30 06:26:06;;;;;;;0.00;0.00;;;;;;;7.22;100.00;98397.56;6212582;23;20020;-82
2022/12/30 06:28:32;;;;;;;0.00;0.00;;;;;;;7.33;100.00;98397.13;6192283;23;20028;-82
2022/12/30 06:30:57;;;;;;;0.00;0.00;;;;;;;7.24;100.00;98398.06;6189160;23;20004;-83
2022/12/30 06:33:23;;;;;;;0.00;0.00;;;;;;;7.23;100.00;98375.53;6192890;23;20012;-82
2022/12/30 06:35:48;;;;;;;0.03;0.03;;;;;;;7.22;100.00;98373.91;6166364;23;20939;-81
2022/12/30 06:38:14;;;;;;;0.00;0.00;;;;;;;7.27;100.00;98381.16;6213594;23;20011;-82
2022/12/30 06:40:40;;;;;;;0.00;0.00;;;;;;;7.18;100.00;98366.63;6214998;23;20327;-81
2022/12/30 06:43:05;;;;;;;0.00;0.00;;;;;;;7.18;100.00;98355.75;6186343;23;20038;-81
2022/12/30 06:45:34;;;;;;;0.00;0.00;;;;;;;7.22;100.00;98354.88;6211420;23;20016;-79
2022/12/30 06:48:19;;;;;;;0.00;0.00;;;;;;;7.16;100.00;98332.38;6210715;23;20031;-84
2022/12/30 06:50:47;;;;;;;0.10;0.10;;;;;;;7.22;100.00;98329.59;6210958;23;20060;-80
2022/12/30 06:53:23;;;;;;;0.00;0.00;;;;;;;7.07;100.00;98296.09;6210354;23;20011;-80
2022/12/30 06:55:48;;;;;;;0.00;0.00;;;;;;;7.05;100.00;98283.91;6211687;23;20039;-82
2022/12/30 06:58:16;;;;;;;0.00;0.00;;;;;;;7.15;100.00;98309.03;6210371;23;20005;-80
2022/12/30 07:00:41;;;;;;;0.00;0.00;;;;;;;7.10;100.00;98295.50;6211214;23;20327;-79
2022/12/30 07:03:06;;;;;;;0.00;0.00;;;;;;;7.10;100.00;98300.94;6162658;23;20062;-81
2022/12/30 07:05:32;;;;;;;0.00;0.00;;;;;;;7.05;100.00;98278.47;6160383;23;20050;-80
2022/12/30 07:07:57;;;;;;;0.00;0.00;;;;;;;7.14;100.00;98274.78;6161400;23;20017;-79
2022/12/30 07:10:23;;;;;;;0.00;0.00;;;;;;;7.22;100.00;98288.81;6209581;23;20067;-82
2022/12/30 07:14:16;;;;;;;0.00;0.00;;;;;;;7.18;100.00;98295.94;6196819;23;20001;-82
2022/12/30 07:16:32;;;;;;;;;;;;;;;;;;;;;
2022/12/30 07:18:58;;;;;;;0.10;0.10;;;;;;;7.31;100.00;98236.19;6211877;23;20092;-80
2022/12/30 07:21:24;;;;;;;0.00;0.00;;;;;;;7.16;100.00;98195.66;6213317;23;20032;-81
2022/12/30 07:23:52;;;;;;;0.00;0.00;;;;;;;7.27;100.00;98190.84;6212898;23;20081;-82
2022/12/30 07:26:17;;;;;;;0.00;0.00;;;;;;;7.26;100.00;98178.38;6208934;23;20008;-79
2022/12/30 07:28:43;;;;;;;0.00;0.00;;;;;;;7.34;100.00;98175.78;6208925;23;20038;-80
2022/12/30 07:31:08;;;;;;;0.10;0.10;;;;;;;7.40;100.00;98190.06;6181828;23;20394;-79
2022/12/30 07:33:33;;;;;;;0.03;0.03;;;;;;;7.45;100.00;98156.56;6158716;23;20015;-79
2022/12/30 07:36:01;;;;;;;0.10;0.10;;;;;;;7.46;100.00;98164.41;6182163;23;20415;-77
2022/12/30 07:38:38;;;;;;;0.00;0.00;;;;;;;7.42;100.00;98149.81;6209339;23;20008;-79
2022/12/30 07:41:13;;;;;;;0.00;0.00;;;;;;;7.45;100.00;98122.00;6184177;23;20092;-79
2022/12/30 07:43:39;;;;;;;0.10;0.10;;;;;;;7.48;100.00;98120.59;6210975;23;20084;-82
2022/12/30 07:46:10;;;;;;;0.08;0.08;;;;;;;7.31;100.00;98094.00;6157946;23;20404;-77
2022/12/30 07:48:36;;;;;;;0.00;0.00;;;;;;;7.40;100.00;98097.63;6184942;23;20740;-77
2022/12/30 07:51:20;;;;;;;0.00;0.00;;;;;;;7.42;100.00;98083.75;6207625;23;20005;-78
2022/12/30 07:53:46;;;;;;;0.00;0.00;;;;;;;7.45;100.00;98067.63;6183349;23;20062;-78
2022/12/30 07:56:13;;;;;;;0.00;0.00;;;;;;;7.49;100.00;98057.75;6161343;23;20009;-79
2022/12/30 07:58:40;;;;;;;0.10;0.10;;;;;;;7.55;100.00;98066.63;6207943;23;20013;-80
2022/12/30 08:01:11;;;;;;;0.00;0.00;;;;;;;7.45;100.00;98029.56;6213294;23;20016;-79
2022/12/30 08:03:37;;;;;;;0.00;0.00;;;;;;;7.57;100.00;98020.06;6209127;23;20009;-79
2022/12/30 08:06:08;;;;;;;0.08;0.08;;;;;;;7.53;100.00;98068.03;6211462;23;20028;-78
2022/12/30 08:08:35;;;;;;;0.00;0.00;;;;;;;7.55;100.00;98000.53;6212005;23;20004;-78
2022/12/30 08:11:01;;;;;;;0.00;0.00;;;;;;;7.64;100.00;97998.72;6209960;23;20036;-77
2022/12/30 08:13:32;;;;;;;0.00;0.00;;;;;;;7.59;100.00;97979.78;6182832;23;20756;-78
2022/12/30 08:16:13;;;;;;;0.00;0.00;;;;;;;7.56;100.00;97980.38;6206232;23;20043;-78
2022/12/30 08:18:38;;;;;;;0.00;0.00;;;;;;;7.54;100.00;97929.03;6214625;23;20066;-79
2022/12/30 08:21:09;;;;;;;0.03;0.03;;;;;;;7.62;100.00;97922.03;6161627;23;20409;-80
2022/12/30 08:23:35;;;;;;;0.00;0.00;;;;;;;7.60;100.00;97902.50;6213667;23;20093;-81
2022/12/30 08:26:11;;;;;;;0.00;0.00;;;;;;;7.69;100.00;97919.69;6186045;23;20004;-82
2022/12/30 08:28:37;;;;;;;0.00;0.00;;;;;;;7.64;100.00;97889.91;6211703;23;20028;-81
2022/12/30 08:31:16;;;;;;;0.00;0.00;;;;;;;7.63;100.00;97915.50;6210951;23;20078;-81
2022/12/30 08:33:48;;;;;;;0.00;0.00;;;;;;;7.69;100.00;97941.44;6213392;23;20000;-83
2022/12/30 08:36:19;;;;;;;0.00;0.00;;;;;;;7.62;100.00;97903.00;6212760;23;19980;-82
2022/12/30 08:38:49;;;;;;;0.00;0.00;;;;;;;7.71;100.00;97905.78;6213951;23;20039;-80
2022/12/30 08:41:18;;;;;;;0.00;0.00;;;;;;;7.66;100.00;97882.22;6210204;23;19996;-80
2022/12/30 08:43:45;;;;;;;0.00;0.00;;;;;;;7.69;100.00;97881.59;6213230;23;20059;-81
2022/12/30 08:46:11;;;;;;;0.10;0.10;;;;;;;7.74;100.00;97873.34;6186273;23;21026;-81
2022/12/30 08:48:36;;;;;;;0.00;0.00;;;;;;;7.73;100.00;97854.59;6215598;23;20066;-80
2022/12/30 08:51:06;;;;;;;0.10;0.10;;;;;;;7.70;100.00;97839.69;6188901;23;20013;-81
2022/12/30 08:53:39;;;;;;;0.00;0.00;;;;;;;7.68;100.00;97820.16;6213439;23;20020;-80
2022/12/30 08:56:18;;;;;;;0.00;0.00;;;;;;;7.82;100.00;97826.31;6216059;23;20012;-80
2022/12/30 08:58:45;;;;;;;0.03;0.03;;;;;;;7.68;100.00;97804.66;6213764;23;20055;-80
2022/12/30 09:01:16;;;;;;;0.00;0.00;;;;;;;7.84;100.00;97802.34;6215597;23;20004;-81
2022/12/30 09:03:45;;;;;;;0.00;0.00;;;;;;;7.78;100.00;97784.56;6211227;23;20087;-80
2022/12/30 09:06:13;;;;;;;0.00;0.00;;;;;;;7.90;100.00;97794.03;6214686;23;20331;-80
2022/12/30 09:08:42;;;;;;;0.00;0.00;;;;;;;7.98;100.00;97804.16;6212840;23;20015;-80
2022/12/30 09:11:14;;;;;;;0.00;0.00;;;;;;;8.00;100.00;97785.59;6214486;23;20120;-80
2022/12/30 09:13:43;;;;;;;0.00;0.00;;;;;;;8.10;100.00;97793.47;6213272;23;19993;-81
2022/12/30 09:16:15;;;;;;;0.00;0.00;;;;;;;8.08;100.00;97801.16;6214613;23;20015;-80
2022/12/30 09:18:40;;;;;;;0.00;0.00;;;;;;;8.09;100.00;97791.06;6214191;23;20008;-80
2022/12/30 09:21:06;;;;;;;0.00;0.00;;;;;;;8.05;100.00;97785.47;6184562;23;20020;-79
2022/12/30 09:23:35;;;;;;;0.00;0.00;;;;;;;8.15;100.00;97795.28;6211238;23;20001;-80
2022/12/30 09:26:01;;;;;;;0.00;0.00;;;;;;;8.19;100.00;97778.00;6212048;23;20012;-81
2022/12/30 09:28:26;;;;;;;0.00;0.00;;;;;;;8.15;100.00;97779.75;6188523;23;20005;-81
2022/12/30 09:30:52;;;;;;;0.00;0.00;;;;;;;8.11;100.00;97762.44;6163632;23;20009;-82
2022/12/30 09:33:17;;;;;;;0.00;0.00;;;;;;;8.31;100.00;97760.25;6215778;23;20062;-82
2022/12/30 09:35:46;;;;;;;0.00;0.00;;;;;;;8.18;100.00;97735.56;6215866;23;20005;-82
2022/12/30 09:38:48;;;;;;;0.00;0.00;;;;;;;8.43;100.00;97767.81;6212871;23;20012;-82
2022/12/30 09:45:03;;;;;;;;;;;;;;;;;;;;;
2022/12/30 09:47:54;;;;;;;0.00;0.00;;;;;;;8.68;100.00;97741.78;6218233;23;20056;-81
2022/12/30 09:50:38;;;;;;;0.00;0.00;;;;;;;8.78;100.00;97735.22;6216494;23;20044;-82
2022/12/30 09:53:47;;;;;;;0.00;0.00;;;;;;;8.86;100.00;97732.50;6216133;23;20058;-81
2022/12/30 09:56:25;;;;;;;0.10;0.10;;;;;;;8.93;100.00;97731.22;6214972;23;20229;-82
2022/12/30 09:58:52;;;;;;;0.08;0.08;;;;;;;9.01;100.00;97719.47;6212156;23;20007;-81
2022/12/30 10:01:49;;;;;;;0.00;0.00;;;;;;;9.19;100.00;97729.25;6186449;23;20001;-81
2022/12/30 10:04:19;;;;;;;0.00;0.00;;;;;;;9.19;100.00;97718.34;6200055;23;20005;-81
2022/12/30 10:07:02;;;;;;;0.10;0.10;;;;;;;9.41;100.00;97719.28;6215368;23;19997;-82
2022/12/30 10:09:28;;;;;;;0.00;0.00;;;;;;;9.59;100.00;97726.31;6214684;23;20028;-83
2022/12/30 10:12:18;;;;;;;0.00;0.00;;;;;;;9.67;100.00;97700.13;6214482;23;20008;-84
2022/12/30 10:14:59;;;;;;;0.00;0.00;;;;;;;9.98;100.00;97711.88;6213922;23;20079;-83
2022/12/30 10:17:58;;;;;;;0.00;0.00;;;;;;;10.17;100.00;97720.44;6214580;23;20015;-84
2022/12/30 10:20:36;;;;;;;0.00;0.00;;;;;;;10.35;100.00;97702.03;6214017;23;20025;-82
2022/12/30 10:23:13;;;;;;;0.00;0.00;;;;;;;10.45;100.00;97689.94;6214525;23;20012;-84
2022/12/30 10:25:52;;;;;;;0.00;0.00;;;;;;;10.70;100.00;97717.41;6214501;23;20005;-84
2022/12/30 10:28:27;;;;;;;0.00;0.00;;;;;;;10.72;100.00;97721.44;6213625;23;20035;-85
2022/12/30 10:30:53;;;;;;;0.05;0.05;;;;;;;10.80;100.00;97711.53;6211703;23;20078;-82
2022/12/30 10:33:24;;;;;;;0.00;0.00;;;;;;;10.88;100.00;97718.06;6166852;23;20009;-82
2022/12/30 10:36:13;;;;;;;0.10;0.10;;;;;;;10.94;100.00;97714.81;6214155;23;19997;-82
2022/12/30 10:38:41;;;;;;;0.00;0.00;;;;;;;10.93;100.00;97715.94;6214759;23;20395;-82
2022/12/30 10:41:39;;;;;;;0.00;0.00;;;;;;;11.11;100.00;97751.34;6161914;23;20018;-83
2022/12/30 10:44:24;;;;;;;0.00;0.00;;;;;;;11.14;100.00;97735.09;6187908;23;20005;-84
2022/12/30 10:47:20;;;;;;;0.00;0.00;;;;;;;11.16;100.00;97748.41;6216360;23;20012;-83
2022/12/30 10:49:49;;;;;;;0.10;0.10;;;;;;;11.20;100.00;97754.81;6214598;23;20477;-83
2022/12/30 10:52:20;;;;;;;0.10;0.10;;;;;;;11.13;100.00;97729.94;6215224;23;20005;-83
2022/12/30 10:54:47;;;;;;;0.00;0.00;;;;;;;11.19;100.00;97739.53;6214188;23;20323;-84
2022/12/30 10:57:31;;;;;;;0.10;0.10;;;;;;;11.33;100.00;97764.69;6190045;23;20047;-84
2022/12/30 11:00:00;;;;;;;0.00;0.00;;;;;;;11.37;100.00;97714.75;6213459;23;20024;-83
2022/12/30 11:02:39;;;;;;;0.00;0.00;;;;;;;11.48;100.00;97732.34;6214080;23;20000;-83
2022/12/30 11:05:39;;;;;;;0.00;0.00;;;;;;;11.89;100.00;97766.19;6214401;23;20454;-83
2022/12/30 11:08:20;;;;;;;0.10;0.10;;;;;;;12.15;100.00;97746.75;6218223;23;20004;-82
2022/12/30 11:11:11;;;;;;;0.00;0.00;;;;;;;12.11;100.00;97734.09;6212600;23;20009;-83
2022/12/30 11:16:34;;;;;;;0.10;0.10;;;;;;;12.16;100.00;97736.59;6216529;23;20012;-83
2022/12/30 11:19:13;;;;;;;;;;;;;;;;;;;;;
2022/12/30 11:21:41;;;;;;;0.00;0.00;;;;;;;12.19;100.00;97753.16;6216698;23;20035;-83
2022/12/30 11:24:19;;;;;;;0.00;0.00;;;;;;;12.19;100.00;97744.13;6189013;23;20007;-82
2022/12/30 11:26:48;;;;;;;0.00;0.00;;;;;;;12.21;100.00;97766.50;6214348;23;20016;-82
2022/12/30 11:29:18;;;;;;;0.00;0.00;;;;;;;12.20;100.00;97753.94;6211998;23;20019;-83
2022/12/30 11:31:50;;;;;;;0.10;0.10;;;;;;;12.30;100.00;97769.13;6217219;23;20000;-82
2022/12/30 11:34:19;;;;;;;0.00;0.00;;;;;;;12.34;100.00;97791.97;6214163;23;20096;-83
2022/12/30 11:36:46;;;;;;;0.00;0.00;;;;;;;12.43;100.00;97778.16;6215497;23;20070;-83
2022/12/30 11:39:28;;;;;;;;;;;;;;;;;;;;;
2022/12/30 11:42:01;;;;;;;0.00;0.00;;;;;;;12.53;100.00;97755.78;6217492;23;20079;-83
2022/12/30 11:44:32;;;;;;;0.00;0.00;;;;;;;12.57;100.00;97779.41;6214639;23;20063;-82
2022/12/30 11:47:07;;;;;;;0.08;0.08;;;;;;;12.75;100.00;97768.97;6217633;23;20327;-82
2022/12/30 11:49:34;;;;;;;0.00;0.00;;;;;;;12.74;100.00;97766.59;6211347;23;20044;-82
2022/12/30 11:52:16;;;;;;;0.10;0.10;;;;;;;12.64;100.00;97767.84;6217352;23;20408;-82
2022/12/30 11:54:53;;;;;;;0.00;0.00;;;;;;;12.60;100.00;97794.38;6216744;23;20001;-83
2022/12/30 11:57:21;;;;;;;0.05;0.05;;;;;;;12.53;100.00;97816.06;6216931;23;20016;-82
2022/12/30 11:59:50;;;;;;;0.00;0.00;;;;;;;12.43;100.00;97813.78;6220676;23;20024;-83
2022/12/30 12:02:23;;;;;;;0.10;0.10;;;;;;;12.35;100.00;97830.00;6220473;23;20031;-83
2022/12/30 12:05:01;;;;;;;;;;;;;;;;;;;;;
2022/12/30 12:07:42;;;;;;;0.05;0.05;;;;;;;12.25;100.00;97849.63;6215279;23;20394;-83
2022/12/30 12:10:44;;;;;;;0.05;0.05;;;;;;;12.19;100.00;97851.78;6216068;23;20070;-82
2022/12/30 12:13:50;;;;;;;;;;;;;;;;;;;;;
2022/12/30 12:16:26;;;;;;;0.00;0.00;;;;;;;12.15;100.00;97861.81;6217768;23;20028;-82
2022/12/30 12:19:10;;;;;;;0.00;0.00;;;;;;;12.17;100.00;97875.16;6215935;23;20035;-82
2022/12/30 12:21:39;;;;;;;0.00;0.00;;;;;;;12.35;100.00;97876.59;6215502;23;20021;-83
2022/12/30 12:24:40;;;;;;;0.00;0.00;;;;;;;12.78;100.00;97873.66;6213821;23;20416;-84
2022/12/30 12:27:27;;;;;;;0.00;0.00;;;;;;;12.80;100.00;97896.81;6214973;23;20000;-83
2022/12/30 12:29:58;;;;;;;0.00;0.00;;;;;;;12.67;100.00;97908.94;6218355;23;20016;-81
2022/12/30 12:32:43;;;;;;;0.00;0.00;;;;;;;12.77;100.00;97929.63;6194875;23;20393;-82
2022/12/30 12:35:30;;;;;;;0.00;0.00;;;;;;;12.79;100.00;97910.88;6218826;23;20001;-82
2022/12/30 12:38:26;;;;;;;0.00;0.00;;;;;;;12.64;100.00;97910.41;6218366;23;20091;-82
2022/12/30 12:41:13;;;;;;;0.10;0.10;;;;;;;12.70;100.00;97941.97;6213689;23;20087;-82
2022/12/30 12:44:00;;;;;;;0.00;0.00;;;;;;;12.69;100.00;97965.03;6212995;23;20566;-82
2022/12/30 12:46:34;;;;;;;0.00;0.00;;;;;;;12.37;100.00;97978.44;6211708;23;20004;-82
2022/12/30 12:49:51;;;;;;;0.10;0.10;;;;;;;12.37;100.00;97970.22;6213920;23;20127;-82
2022/12/30 12:52:57;;;;;;;0.00;0.00;;;;;;;12.39;100.00;97976.13;6215961;23;20009;-82
2022/12/30 12:55:38;;;;;;;0.00;0.00;;;;;;;12.33;100.00;97984.94;6195749;23;20008;-81
2022/12/30 12:58:15;;;;;;;0.00;0.00;;;;;;;12.25;100.00;97983.88;6213662;23;20005;-82
2022/12/30 13:01:10;;;;;;;0.00;0.00;;;;;;;12.21;100.00;97991.16;6213529;23;20019;-82